sensor_id;sensor_type;location;lat;lon;timestamp;P1;durP1;ratioP1;P2;durP2;ratioP2
75342;SDS011;63936;51.006;13.764;2023-06-10T00:00:03;12;;;10;;
75342;SDS011;63936;51.006;13.764;2023-06-10T00:02:04;13;;;10;;
75342;SDS011;63936;51.006;13.764;2023-06-10T00:04:03;12;;;10;;
75342;SDS011;63936;51.006;13.764;2023-06-10T00:06:03;11;;;10;;
75342;SDS011;63936;51.006;13.764;2023-06-10T00:08:07;13;;;10;;
75342;SDS011;63936;51.006;13.764;2023-06-10T00:10:13;12;;;10;;
75342;SDS011;63936;51.006;13.764;2023-06-10T00:12:53;15;;;11;;
75342;SDS011;63936;51.006;13.764;2023-06-10T00:14:03;13;;;11;;
75342;SDS011;63936;51.006;13.764;2023-06-10T00:16:03;13;;;11;;
75342;SDS011;63936;51.006;13.764;2023-06-10T00:18:04;13;;;11;;
75342;SDS011;63936;51.006;13.764;2023-06-10T00:20:10;14;;;11;;
75342;SDS011;63936;51.006;13.764;2023-06-10T00:22:04;14;;;11;;
75342;SDS011;63936;51.006;13.764;2023-06-10T00:24:04;13;;;11;;
75342;SDS011;63936;51.006;13.764;2023-06-10T00:26:04;14;;;12;;
75342;SDS011;63936;51.006;13.764;2023-06-10T00:28:05;14;;;12;;
75342;SDS011;63936;51.006;13.764;2023-06-10T00:31:08;15;;;13;;
75342;SDS011;63936;51.006;13.764;2023-06-10T00:32:03;16;;;14;;
75342;SDS011;63936;51.006;13.764;2023-06-10T00:34:03;16;;;14;;
75342;SDS011;63936;51.006;13.764;2023-06-10T00:36:04;16;;;14;;
75342;SDS011;63936;51.006;13.764;2023-06-10T00:38:03;17;;;15;;
75342;SDS011;63936;51.006;13.764;2023-06-10T00:40:28;17;;;15;;
75342;SDS011;63936;51.006;13.764;2023-06-10T00:42:03;18;;;16;;
75342;SDS011;63936;51.006;13.764;2023-06-10T00:44:03;17;;;15;;
75342;SDS011;63936;51.006;13.764;2023-06-10T00:46:03;17;;;15;;
75342;SDS011;63936;51.006;13.764;2023-06-10T00:48:02;17;;;14;;
75342;SDS011;63936;51.006;13.764;2023-06-10T00:50:06;17;;;15;;
75342;SDS011;63936;51.006;13.764;2023-06-10T00:52:06;15;;;13;;
75342;SDS011;63936;51.006;13.764;2023-06-10T00:54:02;16;;;14;;
75342;SDS011;63936;51.006;13.764;2023-06-10T00:56:03;17;;;15;;
75342;SDS011;63936;51.006;13.764;2023-06-10T00:58:02;16;;;14;;
75342;SDS011;63936;51.006;13.764;2023-06-10T01:00:07;14;;;13;;
75342;SDS011;63936;51.006;13.764;2023-06-10T01:02:04;15;;;13;;
75342;SDS011;63936;51.006;13.764;2023-06-10T01:04:03;16;;;13;;
75342;SDS011;63936;51.006;13.764;2023-06-10T01:06:05;16;;;13;;
75342;SDS011;63936;51.006;13.764;2023-06-10T01:08:03;15;;;13;;
75342;SDS011;63936;51.006;13.764;2023-06-10T01:10:09;16;;;14;;
75342;SDS011;63936;51.006;13.764;2023-06-10T01:12:05;16;;;15;;
75342;SDS011;63936;51.006;13.764;2023-06-10T01:14:01;17;;;15;;
75342;SDS011;63936;51.006;13.764;2023-06-10T01:16:01;18;;;15;;
75342;SDS011;63936;51.006;13.764;2023-06-10T01:18:01;19;;;16;;
75342;SDS011;63936;51.006;13.764;2023-06-10T01:20:02;17;;;15;;
75342;SDS011;63936;51.006;13.764;2023-06-10T01:22:01;17;;;15;;
75342;SDS011;63936;51.006;13.764;2023-06-10T01:24:01;16;;;14;;
75342;SDS011;63936;51.006;13.764;2023-06-10T01:26:02;16;;;13;;
75342;SDS011;63936;51.006;13.764;2023-06-10T01:28:03;15;;;13;;
75342;SDS011;63936;51.006;13.764;2023-06-10T01:30:04;15;;;13;;
75342;SDS011;63936;51.006;13.764;2023-06-10T01:32:04;15;;;13;;
75342;SDS011;63936;51.006;13.764;2023-06-10T01:34:03;14;;;13;;
75342;SDS011;63936;51.006;13.764;2023-06-10T01:36:02;15;;;13;;
75342;SDS011;63936;51.006;13.764;2023-06-10T01:38:01;15;;;13;;
75342;SDS011;63936;51.006;13.764;2023-06-10T01:40:03;15;;;13;;
75342;SDS011;63936;51.006;13.764;2023-06-10T01:42:01;16;;;13;;
75342;SDS011;63936;51.006;13.764;2023-06-10T01:44:01;15;;;14;;
75342;SDS011;63936;51.006;13.764;2023-06-10T01:46:02;15;;;13;;
75342;SDS011;63936;51.006;13.764;2023-06-10T01:48:02;16;;;14;;
75342;SDS011;63936;51.006;13.764;2023-06-10T01:50:03;16;;;14;;
75342;SDS011;63936;51.006;13.764;2023-06-10T01:52:01;18;;;15;;
75342;SDS011;63936;51.006;13.764;2023-06-10T01:54:01;18;;;15;;
75342;SDS011;63936;51.006;13.764;2023-06-10T01:56:01;16;;;15;;
75342;SDS011;63936;51.006;13.764;2023-06-10T01:58:01;17;;;15;;
75342;SDS011;63936;51.006;13.764;2023-06-10T02:00:04;15;;;14;;
75342;SDS011;63936;51.006;13.764;2023-06-10T02:02:02;16;;;14;;
75342;SDS011;63936;51.006;13.764;2023-06-10T02:04:02;17;;;15;;
75342;SDS011;63936;51.006;13.764;2023-06-10T02:06:01;17;;;15;;
75342;SDS011;63936;51.006;13.764;2023-06-10T02:08:02;17;;;15;;
75342;SDS011;63936;51.006;13.764;2023-06-10T02:10:03;18;;;15;;
75342;SDS011;63936;51.006;13.764;2023-06-10T02:12:02;18;;;16;;
75342;SDS011;63936;51.006;13.764;2023-06-10T02:14:02;17;;;15;;
75342;SDS011;63936;51.006;13.764;2023-06-10T02:16:02;17;;;15;;
75342;SDS011;63936;51.006;13.764;2023-06-10T02:18:01;17;;;15;;
75342;SDS011;63936;51.006;13.764;2023-06-10T02:20:03;19;;;15;;
75342;SDS011;63936;51.006;13.764;2023-06-10T02:22:01;17;;;15;;
75342;SDS011;63936;51.006;13.764;2023-06-10T02:24:01;16;;;14;;
75342;SDS011;63936;51.006;13.764;2023-06-10T02:26:02;17;;;15;;
75342;SDS011;63936;51.006;13.764;2023-06-10T02:28:01;17;;;15;;
75342;SDS011;63936;51.006;13.764;2023-06-10T02:30:03;17;;;15;;
75342;SDS011;63936;51.006;13.764;2023-06-10T02:32:02;17;;;15;;
75342;SDS011;63936;51.006;13.764;2023-06-10T02:34:01;17;;;14;;
75342;SDS011;63936;51.006;13.764;2023-06-10T02:36:01;17;;;15;;
75342;SDS011;63936;51.006;13.764;2023-06-10T02:38:02;17;;;15;;
75342;SDS011;63936;51.006;13.764;2023-06-10T02:40:05;17;;;15;;
75342;SDS011;63936;51.006;13.764;2023-06-10T02:42:02;17;;;15;;
75342;SDS011;63936;51.006;13.764;2023-06-10T02:44:02;17;;;15;;
75342;SDS011;63936;51.006;13.764;2023-06-10T02:46:02;17;;;14;;
75342;SDS011;63936;51.006;13.764;2023-06-10T02:48:01;17;;;14;;
75342;SDS011;63936;51.006;13.764;2023-06-10T02:50:03;16;;;14;;
75342;SDS011;63936;51.006;13.764;2023-06-10T02:52:01;16;;;14;;
75342;SDS011;63936;51.006;13.764;2023-06-10T02:54:01;16;;;15;;
75342;SDS011;63936;51.006;13.764;2023-06-10T02:56:01;18;;;14;;
75342;SDS011;63936;51.006;13.764;2023-06-10T02:58:01;16;;;14;;
75342;SDS011;63936;51.006;13.764;2023-06-10T03:00:03;16;;;14;;
75342;SDS011;63936;51.006;13.764;2023-06-10T03:02:02;18;;;14;;
75342;SDS011;63936;51.006;13.764;2023-06-10T03:04:02;18;;;15;;
75342;SDS011;63936;51.006;13.764;2023-06-10T03:06:02;16;;;14;;
75342;SDS011;63936;51.006;13.764;2023-06-10T03:08:02;16;;;14;;
75342;SDS011;63936;51.006;13.764;2023-06-10T03:10:05;16;;;14;;
75342;SDS011;63936;51.006;13.764;2023-06-10T03:12:01;16;;;14;;
75342;SDS011;63936;51.006;13.764;2023-06-10T03:14:01;16;;;14;;
75342;SDS011;63936;51.006;13.764;2023-06-10T03:16:02;16;;;14;;
75342;SDS011;63936;51.006;13.764;2023-06-10T03:18:02;16;;;14;;
75342;SDS011;63936;51.006;13.764;2023-06-10T03:20:02;15;;;14;;
75342;SDS011;63936;51.006;13.764;2023-06-10T03:22:07;16;;;14;;
75342;SDS011;63936;51.006;13.764;2023-06-10T03:24:02;17;;;13;;
75342;SDS011;63936;51.006;13.764;2023-06-10T03:26:02;17;;;13;;
75342;SDS011;63936;51.006;13.764;2023-06-10T03:28:01;15;;;13;;
75342;SDS011;63936;51.006;13.764;2023-06-10T03:30:03;15;;;13;;
75342;SDS011;63936;51.006;13.764;2023-06-10T03:32:02;17;;;13;;
75342;SDS011;63936;51.006;13.764;2023-06-10T03:34:01;15;;;13;;
75342;SDS011;63936;51.006;13.764;2023-06-10T03:36:02;15;;;13;;
75342;SDS011;63936;51.006;13.764;2023-06-10T03:38:02;15;;;13;;
75342;SDS011;63936;51.006;13.764;2023-06-10T03:40:04;15;;;13;;
75342;SDS011;63936;51.006;13.764;2023-06-10T03:42:02;14;;;12;;
75342;SDS011;63936;51.006;13.764;2023-06-10T03:44:02;14;;;12;;
75342;SDS011;63936;51.006;13.764;2023-06-10T03:46:01;14;;;12;;
75342;SDS011;63936;51.006;13.764;2023-06-10T03:48:01;12;;;11;;
75342;SDS011;63936;51.006;13.764;2023-06-10T03:50:02;14;;;10;;
75342;SDS011;63936;51.006;13.764;2023-06-10T03:52:02;13;;;10;;
75342;SDS011;63936;51.006;13.764;2023-06-10T03:54:02;12;;;10;;
75342;SDS011;63936;51.006;13.764;2023-06-10T03:56:02;11;;;10;;
75342;SDS011;63936;51.006;13.764;2023-06-10T03:58:01;12;;;9;;
75342;SDS011;63936;51.006;13.764;2023-06-10T04:00:03;12;;;9;;
75342;SDS011;63936;51.006;13.764;2023-06-10T04:02:06;12;;;9;;
75342;SDS011;63936;51.006;13.764;2023-06-10T04:04:04;12;;;9;;
75342;SDS011;63936;51.006;13.764;2023-06-10T04:06:03;12;;;9;;
75342;SDS011;63936;51.006;13.764;2023-06-10T04:08:01;13;;;9;;
75342;SDS011;63936;51.006;13.764;2023-06-10T04:10:06;13;;;9;;
75342;SDS011;63936;51.006;13.764;2023-06-10T04:12:02;13;;;8;;
75342;SDS011;63936;51.006;13.764;2023-06-10T04:14:02;11;;;8;;
75342;SDS011;63936;51.006;13.764;2023-06-10T04:16:02;10;;;7;;
75342;SDS011;63936;51.006;13.764;2023-06-10T04:18:02;10;;;7;;
75342;SDS011;63936;51.006;13.764;2023-06-10T04:20:04;12;;;8;;
75342;SDS011;63936;51.006;13.764;2023-06-10T04:22:03;11;;;8;;
75342;SDS011;63936;51.006;13.764;2023-06-10T04:24:02;10;;;8;;
75342;SDS011;63936;51.006;13.764;2023-06-10T04:26:02;11;;;8;;
75342;SDS011;63936;51.006;13.764;2023-06-10T04:28:01;10;;;8;;
75342;SDS011;63936;51.006;13.764;2023-06-10T04:30:02;10;;;8;;
75342;SDS011;63936;51.006;13.764;2023-06-10T04:32:02;11;;;8;;
75342;SDS011;63936;51.006;13.764;2023-06-10T04:34:01;11;;;8;;
75342;SDS011;63936;51.006;13.764;2023-06-10T04:36:02;10;;;8;;
75342;SDS011;63936;51.006;13.764;2023-06-10T04:38:02;11;;;8;;
75342;SDS011;63936;51.006;13.764;2023-06-10T04:40:03;10;;;8;;
75342;SDS011;63936;51.006;13.764;2023-06-10T04:42:01;11;;;8;;
75342;SDS011;63936;51.006;13.764;2023-06-10T04:44:01;13;;;8;;
75342;SDS011;63936;51.006;13.764;2023-06-10T04:46:02;12;;;7;;
75342;SDS011;63936;51.006;13.764;2023-06-10T04:48:02;11;;;8;;
75342;SDS011;63936;51.006;13.764;2023-06-10T04:50:04;10;;;8;;
75342;SDS011;63936;51.006;13.764;2023-06-10T04:52:02;10;;;7;;
75342;SDS011;63936;51.006;13.764;2023-06-10T04:54:01;10;;;7;;
75342;SDS011;63936;51.006;13.764;2023-06-10T04:56:01;9;;;7;;
75342;SDS011;63936;51.006;13.764;2023-06-10T04:58:01;10;;;8;;
75342;SDS011;63936;51.006;13.764;2023-06-10T05:00:06;11;;;7;;
75342;SDS011;63936;51.006;13.764;2023-06-10T05:02:01;12;;;7;;
75342;SDS011;63936;51.006;13.764;2023-06-10T05:04:02;9;;;7;;
75342;SDS011;63936;51.006;13.764;2023-06-10T05:06:02;9;;;7;;
75342;SDS011;63936;51.006;13.764;2023-06-10T05:08:02;9;;;7;;
75342;SDS011;63936;51.006;13.764;2023-06-10T05:10:04;9;;;7;;
75342;SDS011;63936;51.006;13.764;2023-06-10T05:12:01;9;;;7;;
75342;SDS011;63936;51.006;13.764;2023-06-10T05:14:01;9;;;7;;
75342;SDS011;63936;51.006;13.764;2023-06-10T05:16:02;9;;;6;;
75342;SDS011;63936;51.006;13.764;2023-06-10T05:18:01;10;;;6;;
75342;SDS011;63936;51.006;13.764;2023-06-10T05:20:03;12;;;6;;
75342;SDS011;63936;51.006;13.764;2023-06-10T05:22:02;11;;;6;;
75342;SDS011;63936;51.006;13.764;2023-06-10T05:24:01;11;;;6;;
75342;SDS011;63936;51.006;13.764;2023-06-10T05:26:01;10;;;6;;
75342;SDS011;63936;51.006;13.764;2023-06-10T05:28:01;9;;;6;;
75342;SDS011;63936;51.006;13.764;2023-06-10T05:30:02;10;;;6;;
75342;SDS011;63936;51.006;13.764;2023-06-10T05:32:05;9;;;6;;
75342;SDS011;63936;51.006;13.764;2023-06-10T05:34:02;8;;;6;;
75342;SDS011;63936;51.006;13.764;2023-06-10T05:36:02;8;;;6;;
75342;SDS011;63936;51.006;13.764;2023-06-10T05:38:02;9;;;6;;
75342;SDS011;63936;51.006;13.764;2023-06-10T05:40:04;9;;;6;;
75342;SDS011;63936;51.006;13.764;2023-06-10T05:42:02;8;;;6;;
75342;SDS011;63936;51.006;13.764;2023-06-10T05:44:02;8;;;5;;
75342;SDS011;63936;51.006;13.764;2023-06-10T05:46:02;8;;;6;;
75342;SDS011;63936;51.006;13.764;2023-06-10T05:48:02;9;;;6;;
75342;SDS011;63936;51.006;13.764;2023-06-10T05:50:03;10;;;6;;
75342;SDS011;63936;51.006;13.764;2023-06-10T05:52:01;9;;;6;;
75342;SDS011;63936;51.006;13.764;2023-06-10T05:54:01;9;;;6;;
75342;SDS011;63936;51.006;13.764;2023-06-10T05:56:01;9;;;6;;
75342;SDS011;63936;51.006;13.764;2023-06-10T05:58:01;9;;;6;;
75342;SDS011;63936;51.006;13.764;2023-06-10T06:00:01;9;;;6;;
75342;SDS011;63936;51.006;13.764;2023-06-10T06:02:01;8;;;6;;
75342;SDS011;63936;51.006;13.764;2023-06-10T06:04:01;11;;;6;;
75342;SDS011;63936;51.006;13.764;2023-06-10T06:06:02;10;;;6;;
75342;SDS011;63936;51.006;13.764;2023-06-10T06:08:01;10;;;6;;
75342;SDS011;63936;51.006;13.764;2023-06-10T06:10:03;9;;;6;;
75342;SDS011;63936;51.006;13.764;2023-06-10T06:12:01;13;;;5;;
75342;SDS011;63936;51.006;13.764;2023-06-10T06:14:01;10;;;5;;
75342;SDS011;63936;51.006;13.764;2023-06-10T06:16:01;8;;;5;;
75342;SDS011;63936;51.006;13.764;2023-06-10T06:18:01;9;;;5;;
75342;SDS011;63936;51.006;13.764;2023-06-10T06:20:02;8;;;5;;
75342;SDS011;63936;51.006;13.764;2023-06-10T06:22:01;8;;;5;;
75342;SDS011;63936;51.006;13.764;2023-06-10T06:24:02;8;;;5;;
75342;SDS011;63936;51.006;13.764;2023-06-10T06:26:01;8;;;5;;
75342;SDS011;63936;51.006;13.764;2023-06-10T06:28:01;8;;;5;;
75342;SDS011;63936;51.006;13.764;2023-06-10T06:30:03;8;;;5;;
75342;SDS011;63936;51.006;13.764;2023-06-10T06:32:01;7;;;4;;
75342;SDS011;63936;51.006;13.764;2023-06-10T06:34:01;8;;;4;;
75342;SDS011;63936;51.006;13.764;2023-06-10T06:36:01;8;;;4;;
75342;SDS011;63936;51.006;13.764;2023-06-10T06:38:01;7;;;4;;
75342;SDS011;63936;51.006;13.764;2023-06-10T06:40:01;6;;;4;;
75342;SDS011;63936;51.006;13.764;2023-06-10T06:42:01;6;;;4;;
75342;SDS011;63936;51.006;13.764;2023-06-10T06:44:01;7;;;4;;
75342;SDS011;63936;51.006;13.764;2023-06-10T06:46:01;7;;;4;;
75342;SDS011;63936;51.006;13.764;2023-06-10T06:48:01;7;;;4;;
75342;SDS011;63936;51.006;13.764;2023-06-10T06:50:02;7;;;4;;
75342;SDS011;63936;51.006;13.764;2023-06-10T06:52:02;6;;;4;;
75342;SDS011;63936;51.006;13.764;2023-06-10T06:54:01;7;;;4;;
75342;SDS011;63936;51.006;13.764;2023-06-10T06:56:02;7;;;4;;
75342;SDS011;63936;51.006;13.764;2023-06-10T06:58:02;7;;;4;;
75342;SDS011;63936;51.006;13.764;2023-06-10T07:00:03;8;;;4;;
75342;SDS011;63936;51.006;13.764;2023-06-10T07:02:01;8;;;4;;
75342;SDS011;63936;51.006;13.764;2023-06-10T07:04:01;7;;;4;;
75342;SDS011;63936;51.006;13.764;2023-06-10T07:06:01;6;;;4;;
75342;SDS011;63936;51.006;13.764;2023-06-10T07:08:01;8;;;5;;
75342;SDS011;63936;51.006;13.764;2023-06-10T07:10:01;7;;;4;;
75342;SDS011;63936;51.006;13.764;2023-06-10T07:12:01;7;;;4;;
75342;SDS011;63936;51.006;13.764;2023-06-10T07:14:01;8;;;4;;
75342;SDS011;63936;51.006;13.764;2023-06-10T07:16:02;10;;;5;;
75342;SDS011;63936;51.006;13.764;2023-06-10T07:18:02;9;;;5;;
75342;SDS011;63936;51.006;13.764;2023-06-10T07:20:02;8;;;4;;
75342;SDS011;63936;51.006;13.764;2023-06-10T07:22:01;7;;;4;;
75342;SDS011;63936;51.006;13.764;2023-06-10T07:24:01;8;;;4;;
75342;SDS011;63936;51.006;13.764;2023-06-10T07:26:01;10;;;5;;
75342;SDS011;63936;51.006;13.764;2023-06-10T07:28:01;9;;;4;;
75342;SDS011;63936;51.006;13.764;2023-06-10T07:30:02;9;;;4;;
75342;SDS011;63936;51.006;13.764;2023-06-10T07:32:02;7;;;4;;
75342;SDS011;63936;51.006;13.764;2023-06-10T07:34:01;7;;;4;;
75342;SDS011;63936;51.006;13.764;2023-06-10T07:36:02;7;;;4;;
75342;SDS011;63936;51.006;13.764;2023-06-10T07:38:02;6;;;4;;
75342;SDS011;63936;51.006;13.764;2023-06-10T07:40:01;6;;;4;;
75342;SDS011;63936;51.006;13.764;2023-06-10T07:42:01;7;;;4;;
75342;SDS011;63936;51.006;13.764;2023-06-10T07:44:01;7;;;4;;
75342;SDS011;63936;51.006;13.764;2023-06-10T07:46:01;7;;;4;;
75342;SDS011;63936;51.006;13.764;2023-06-10T07:48:01;7;;;4;;
75342;SDS011;63936;51.006;13.764;2023-06-10T07:50:02;7;;;4;;
75342;SDS011;63936;51.006;13.764;2023-06-10T07:52:01;7;;;4;;
75342;SDS011;63936;51.006;13.764;2023-06-10T07:54:01;8;;;4;;
75342;SDS011;63936;51.006;13.764;2023-06-10T07:56:02;7;;;4;;
75342;SDS011;63936;51.006;13.764;2023-06-10T07:58:02;7;;;5;;
75342;SDS011;63936;51.006;13.764;2023-06-10T08:00:03;7;;;4;;
75342;SDS011;63936;51.006;13.764;2023-06-10T08:02:01;6;;;4;;
75342;SDS011;63936;51.006;13.764;2023-06-10T08:04:01;7;;;4;;
75342;SDS011;63936;51.006;13.764;2023-06-10T08:06:01;7;;;4;;
75342;SDS011;63936;51.006;13.764;2023-06-10T08:08:01;7;;;4;;
75342;SDS011;63936;51.006;13.764;2023-06-10T08:10:02;7;;;4;;
75342;SDS011;63936;51.006;13.764;2023-06-10T08:12:01;7;;;4;;
75342;SDS011;63936;51.006;13.764;2023-06-10T08:14:01;7;;;5;;
75342;SDS011;63936;51.006;13.764;2023-06-10T08:16:01;7;;;5;;
75342;SDS011;63936;51.006;13.764;2023-06-10T08:18:01;8;;;5;;
75342;SDS011;63936;51.006;13.764;2023-06-10T08:20:02;10;;;5;;
75342;SDS011;63936;51.006;13.764;2023-06-10T08:22:01;7;;;4;;
75342;SDS011;63936;51.006;13.764;2023-06-10T08:24:01;7;;;4;;
75342;SDS011;63936;51.006;13.764;2023-06-10T08:26:01;7;;;4;;
75342;SDS011;63936;51.006;13.764;2023-06-10T08:28:01;8;;;4;;
75342;SDS011;63936;51.006;13.764;2023-06-10T08:30:02;7;;;4;;
75342;SDS011;63936;51.006;13.764;2023-06-10T08:32:02;8;;;4;;
75342;SDS011;63936;51.006;13.764;2023-06-10T08:34:01;7;;;3;;
75342;SDS011;63936;51.006;13.764;2023-06-10T08:36:01;8;;;3;;
75342;SDS011;63936;51.006;13.764;2023-06-10T08:38:01;7;;;4;;
75342;SDS011;63936;51.006;13.764;2023-06-10T08:40:02;7;;;4;;
75342;SDS011;63936;51.006;13.764;2023-06-10T08:42:04;6;;;4;;
75342;SDS011;63936;51.006;13.764;2023-06-10T08:44:03;21;;;5;;
75342;SDS011;63936;51.006;13.764;2023-06-10T08:46:01;20;;;5;;
75342;SDS011;63936;51.006;13.764;2023-06-10T08:48:01;15;;;4;;
75342;SDS011;63936;51.006;13.764;2023-06-10T08:50:02;12;;;4;;
75342;SDS011;63936;51.006;13.764;2023-06-10T08:52:02;8;;;3;;
75342;SDS011;63936;51.006;13.764;2023-06-10T08:54:01;6;;;3;;
75342;SDS011;63936;51.006;13.764;2023-06-10T08:56:01;6;;;3;;
75342;SDS011;63936;51.006;13.764;2023-06-10T08:58:02;7;;;4;;
75342;SDS011;63936;51.006;13.764;2023-06-10T09:00:02;7;;;4;;
75342;SDS011;63936;51.006;13.764;2023-06-10T09:02:01;7;;;4;;
75342;SDS011;63936;51.006;13.764;2023-06-10T09:04:01;7;;;4;;
75342;SDS011;63936;51.006;13.764;2023-06-10T09:06:01;8;;;4;;
75342;SDS011;63936;51.006;13.764;2023-06-10T09:08:01;7;;;4;;
75342;SDS011;63936;51.006;13.764;2023-06-10T09:10:02;6;;;4;;
75342;SDS011;63936;51.006;13.764;2023-06-10T09:12:02;6;;;4;;
75342;SDS011;63936;51.006;13.764;2023-06-10T09:14:01;9;;;4;;
75342;SDS011;63936;51.006;13.764;2023-06-10T09:16:01;16;;;4;;
75342;SDS011;63936;51.006;13.764;2023-06-10T09:18:01;9;;;4;;
75342;SDS011;63936;51.006;13.764;2023-06-10T09:20:02;7;;;4;;
75342;SDS011;63936;51.006;13.764;2023-06-10T09:22:01;7;;;4;;
75342;SDS011;63936;51.006;13.764;2023-06-10T09:24:01;7;;;4;;
75342;SDS011;63936;51.006;13.764;2023-06-10T09:26:02;8;;;4;;
75342;SDS011;63936;51.006;13.764;2023-06-10T09:28:02;14;;;4;;
75342;SDS011;63936;51.006;13.764;2023-06-10T09:30:02;14;;;5;;
75342;SDS011;63936;51.006;13.764;2023-06-10T09:32:01;8;;;4;;
75342;SDS011;63936;51.006;13.764;2023-06-10T09:34:08;6;;;4;;
75342;SDS011;63936;51.006;13.764;2023-06-10T09:36:02;6;;;3;;
75342;SDS011;63936;51.006;13.764;2023-06-10T09:38:01;8;;;4;;
75342;SDS011;63936;51.006;13.764;2023-06-10T09:40:02;9;;;4;;
75342;SDS011;63936;51.006;13.764;2023-06-10T09:42:02;8;;;4;;
75342;SDS011;63936;51.006;13.764;2023-06-10T09:44:02;8;;;4;;
75342;SDS011;63936;51.006;13.764;2023-06-10T09:46:01;7;;;4;;
75342;SDS011;63936;51.006;13.764;2023-06-10T09:48:01;7;;;3;;
75342;SDS011;63936;51.006;13.764;2023-06-10T09:50:02;7;;;4;;
75342;SDS011;63936;51.006;13.764;2023-06-10T09:52:01;7;;;4;;
75342;SDS011;63936;51.006;13.764;2023-06-10T09:54:02;7;;;4;;
75342;SDS011;63936;51.006;13.764;2023-06-10T09:56:01;7;;;4;;
75342;SDS011;63936;51.006;13.764;2023-06-10T09:58:01;8;;;4;;
75342;SDS011;63936;51.006;13.764;2023-06-10T10:00:04;8;;;4;;
75342;SDS011;63936;51.006;13.764;2023-06-10T10:02:01;8;;;4;;
75342;SDS011;63936;51.006;13.764;2023-06-10T10:04:01;10;;;4;;
75342;SDS011;63936;51.006;13.764;2023-06-10T10:06:01;8;;;4;;
75342;SDS011;63936;51.006;13.764;2023-06-10T10:08:01;6;;;4;;
75342;SDS011;63936;51.006;13.764;2023-06-10T10:10:02;8;;;3;;
75342;SDS011;63936;51.006;13.764;2023-06-10T10:12:01;7;;;4;;
75342;SDS011;63936;51.006;13.764;2023-06-10T10:14:01;8;;;3;;
75342;SDS011;63936;51.006;13.764;2023-06-10T10:16:02;7;;;4;;
75342;SDS011;63936;51.006;13.764;2023-06-10T10:18:03;7;;;4;;
75342;SDS011;63936;51.006;13.764;2023-06-10T10:20:03;6;;;4;;
75342;SDS011;63936;51.006;13.764;2023-06-10T10:22:03;13;;;3;;
75342;SDS011;63936;51.006;13.764;2023-06-10T10:24:03;7;;;4;;
75342;SDS011;63936;51.006;13.764;2023-06-10T10:26:03;6;;;3;;
75342;SDS011;63936;51.006;13.764;2023-06-10T10:28:04;7;;;4;;
75342;SDS011;63936;51.006;13.764;2023-06-10T10:30:03;6;;;4;;
75342;SDS011;63936;51.006;13.764;2023-06-10T10:32:01;17;;;5;;
75342;SDS011;63936;51.006;13.764;2023-06-10T10:34:02;13;;;4;;
75342;SDS011;63936;51.006;13.764;2023-06-10T10:36:01;8;;;4;;
75342;SDS011;63936;51.006;13.764;2023-06-10T10:38:01;11;;;4;;
75342;SDS011;63936;51.006;13.764;2023-06-10T10:40:02;12;;;4;;
75342;SDS011;63936;51.006;13.764;2023-06-10T10:42:02;7;;;3;;
75342;SDS011;63936;51.006;13.764;2023-06-10T10:44:02;7;;;3;;
75342;SDS011;63936;51.006;13.764;2023-06-10T10:46:01;8;;;3;;
75342;SDS011;63936;51.006;13.764;2023-06-10T10:48:05;8;;;3;;
75342;SDS011;63936;51.006;13.764;2023-06-10T10:50:03;7;;;4;;
75342;SDS011;63936;51.006;13.764;2023-06-10T10:52:01;37;;;6;;
75342;SDS011;63936;51.006;13.764;2023-06-10T10:54:16;17;;;5;;
75342;SDS011;63936;51.006;13.764;2023-06-10T10:56:04;9;;;4;;
75342;SDS011;63936;51.006;13.764;2023-06-10T10:58:02;7;;;4;;
75342;SDS011;63936;51.006;13.764;2023-06-10T11:00:02;7;;;3;;
75342;SDS011;63936;51.006;13.764;2023-06-10T11:02:01;6;;;4;;
75342;SDS011;63936;51.006;13.764;2023-06-10T11:04:01;7;;;3;;
75342;SDS011;63936;51.006;13.764;2023-06-10T11:06:01;7;;;4;;
75342;SDS011;63936;51.006;13.764;2023-06-10T11:08:02;6;;;4;;
75342;SDS011;63936;51.006;13.764;2023-06-10T11:10:04;6;;;3;;
75342;SDS011;63936;51.006;13.764;2023-06-10T11:12:01;7;;;3;;
75342;SDS011;63936;51.006;13.764;2023-06-10T11:14:08;10;;;3;;
75342;SDS011;63936;51.006;13.764;2023-06-10T11:16:01;6;;;3;;
75342;SDS011;63936;51.006;13.764;2023-06-10T11:18:09;6;;;3;;
75342;SDS011;63936;51.006;13.764;2023-06-10T11:20:02;8;;;3;;
75342;SDS011;63936;51.006;13.764;2023-06-10T11:22:01;14;;;4;;
75342;SDS011;63936;51.006;13.764;2023-06-10T11:24:09;14;;;4;;
75342;SDS011;63936;51.006;13.764;2023-06-10T11:26:17;7;;;3;;
75342;SDS011;63936;51.006;13.764;2023-06-10T11:28:01;7;;;3;;
75342;SDS011;63936;51.006;13.764;2023-06-10T11:30:17;6;;;3;;
75342;SDS011;63936;51.006;13.764;2023-06-10T11:32:02;6;;;3;;
75342;SDS011;63936;51.006;13.764;2023-06-10T11:34:02;6;;;3;;
75342;SDS011;63936;51.006;13.764;2023-06-10T11:36:02;6;;;3;;
75342;SDS011;63936;51.006;13.764;2023-06-10T11:38:02;6;;;3;;
75342;SDS011;63936;51.006;13.764;2023-06-10T11:40:02;7;;;3;;
75342;SDS011;63936;51.006;13.764;2023-06-10T11:42:01;7;;;4;;
75342;SDS011;63936;51.006;13.764;2023-06-10T11:44:02;7;;;3;;
75342;SDS011;63936;51.006;13.764;2023-06-10T11:46:01;9;;;4;;
75342;SDS011;63936;51.006;13.764;2023-06-10T11:48:01;8;;;3;;
75342;SDS011;63936;51.006;13.764;2023-06-10T11:50:02;8;;;4;;
75342;SDS011;63936;51.006;13.764;2023-06-10T11:52:04;8;;;4;;
75342;SDS011;63936;51.006;13.764;2023-06-10T11:54:02;6;;;4;;
75342;SDS011;63936;51.006;13.764;2023-06-10T11:56:02;8;;;4;;
75342;SDS011;63936;51.006;13.764;2023-06-10T11:58:02;7;;;4;;
75342;SDS011;63936;51.006;13.764;2023-06-10T12:00:04;7;;;4;;
75342;SDS011;63936;51.006;13.764;2023-06-10T12:02:01;6;;;4;;
75342;SDS011;63936;51.006;13.764;2023-06-10T12:04:02;7;;;4;;
75342;SDS011;63936;51.006;13.764;2023-06-10T12:06:03;7;;;4;;
75342;SDS011;63936;51.006;13.764;2023-06-10T12:08:08;7;;;4;;
75342;SDS011;63936;51.006;13.764;2023-06-10T12:10:02;7;;;4;;
75342;SDS011;63936;51.006;13.764;2023-06-10T12:12:02;7;;;4;;
75342;SDS011;63936;51.006;13.764;2023-06-10T12:14:02;7;;;4;;
75342;SDS011;63936;51.006;13.764;2023-06-10T12:16:08;7;;;4;;
75342;SDS011;63936;51.006;13.764;2023-06-10T12:18:01;7;;;4;;
75342;SDS011;63936;51.006;13.764;2023-06-10T12:20:02;9;;;3;;
75342;SDS011;63936;51.006;13.764;2023-06-10T12:22:01;7;;;4;;
75342;SDS011;63936;51.006;13.764;2023-06-10T12:24:02;8;;;4;;
75342;SDS011;63936;51.006;13.764;2023-06-10T12:26:01;8;;;3;;
75342;SDS011;63936;51.006;13.764;2023-06-10T12:28:01;8;;;3;;
75342;SDS011;63936;51.006;13.764;2023-06-10T12:30:03;7;;;4;;
75342;SDS011;63936;51.006;13.764;2023-06-10T12:32:02;6;;;3;;
75342;SDS011;63936;51.006;13.764;2023-06-10T12:34:07;7;;;3;;
75342;SDS011;63936;51.006;13.764;2023-06-10T12:36:02;6;;;4;;
75342;SDS011;63936;51.006;13.764;2023-06-10T12:38:02;6;;;4;;
75342;SDS011;63936;51.006;13.764;2023-06-10T12:40:01;7;;;4;;
75342;SDS011;63936;51.006;13.764;2023-06-10T12:42:01;7;;;4;;
75342;SDS011;63936;51.006;13.764;2023-06-10T12:44:01;9;;;4;;
75342;SDS011;63936;51.006;13.764;2023-06-10T12:46:08;8;;;3;;
75342;SDS011;63936;51.006;13.764;2023-06-10T12:48:04;7;;;3;;
75342;SDS011;63936;51.006;13.764;2023-06-10T12:50:02;7;;;3;;
75342;SDS011;63936;51.006;13.764;2023-06-10T12:52:01;10;;;3;;